Preston, Arkansas
Current Conditions -  °F | °C
As of 2:58 PM on Thursday 27 Nov 2014 (Local Time) from KLRF Reporting Station
Haze Haze  
Wind Chill: 47°   Ceiling: Unl
Heat Index: 49°   Visibility: 6mi
Dew Point: 26°   Wind: 5mph
Humidity: 40%   Direction: 300°WNW
Pressure: 30.47"   Gusts: NA
Location:  35.0822°N, 92.366°W
Report Text: KLRF 272058Z AUTO 30004KT 6SM HZ CLR 09/M04 A3047 RMK AO2 SLP323 T00931036 56015 $
Loading
Personal Weather Stations






























Interactive Weather Map New forecast layout! Learn more

10-Day Weather Forecast

Advertisements
Track Severe Weather on mobile